sensor_id;sensor_type;location;lat;lon;timestamp;pressure;altitude;pressure_sealevel;temperature;humidity
7754;BME280;3921;42.266;23.122;2023-07-30T00:01:56;95031.94;;;22.42;49.63
7754;BME280;3921;42.266;23.122;2023-07-30T00:04:25;95328.03;;;24.04;50.06
7754;BME280;3921;42.266;23.122;2023-07-30T00:06:52;95282.31;;;23.82;50.61
7754;BME280;3921;42.266;23.122;2023-07-30T00:09:20;95042.94;;;22.44;50.62
7754;BME280;3921;42.266;23.122;2023-07-30T00:11:48;95173.28;;;23.20;50.61
7754;BME280;3921;42.266;23.122;2023-07-30T00:14:15;95075.38;;;22.58;50.01
7754;BME280;3921;42.266;23.122;2023-07-30T00:16:42;94899.47;;;21.45;49.79
7754;BME280;3921;42.266;23.122;2023-07-30T00:19:15;94839.31;;;20.95;50.29
7754;BME280;3921;42.266;23.122;2023-07-30T00:21:43;94781.91;;;20.57;50.09
7754;BME280;3921;42.266;23.122;2023-07-30T00:24:12;95256.50;;;23.43;50.64
7754;BME280;3921;42.266;23.122;2023-07-30T00:26:41;94932.88;;;21.27;50.64
7754;BME280;3921;42.266;23.122;2023-07-30T00:29:12;94912.78;;;21.20;50.22
7754;BME280;3921;42.266;23.122;2023-07-30T00:31:39;95477.97;;;24.72;50.77
7754;BME280;3921;42.266;23.122;2023-07-30T00:34:10;94986.47;;;21.74;50.73
7754;BME280;3921;42.266;23.122;2023-07-30T00:36:46;94971.22;;;21.42;50.93
7754;BME280;3921;42.266;23.122;2023-07-30T00:39:15;94883.75;;;20.77;50.95
7754;BME280;3921;42.266;23.122;2023-07-30T00:41:45;95029.69;;;21.93;51.30
7754;BME280;3921;42.266;23.122;2023-07-30T00:44:12;94832.94;;;20.73;50.74
7754;BME280;3921;42.266;23.122;2023-07-30T00:46:40;94967.13;;;21.54;50.76
7754;BME280;3921;42.266;23.122;2023-07-30T00:49:07;94943.31;;;21.08;50.86
7754;BME280;3921;42.266;23.122;2023-07-30T00:51:34;95356.72;;;23.68;51.06
7754;BME280;3921;42.266;23.122;2023-07-30T00:54:01;94872.31;;;20.99;51.07
7754;BME280;3921;42.266;23.122;2023-07-30T00:56:29;94898.59;;;21.01;50.81
7754;BME280;3921;42.266;23.122;2023-07-30T00:59:01;95070.88;;;22.18;50.81
7754;BME280;3921;42.266;23.122;2023-07-30T01:01:29;95035.63;;;21.93;51.18
7754;BME280;3921;42.266;23.122;2023-07-30T01:03:59;95111.75;;;22.20;50.82
7754;BME280;3921;42.266;23.122;2023-07-30T01:06:26;95191.72;;;22.68;50.93
7754;BME280;3921;42.266;23.122;2023-07-30T01:08:55;95423.22;;;23.85;50.86
7754;BME280;3921;42.266;23.122;2023-07-30T01:11:24;95275.19;;;23.30;51.35
7754;BME280;3921;42.266;23.122;2023-07-30T01:13:51;94896.09;;;20.69;51.10
7754;BME280;3921;42.266;23.122;2023-07-30T01:16:20;95081.75;;;21.92;50.95
7754;BME280;3921;42.266;23.122;2023-07-30T01:18:47;95163.16;;;22.15;51.24
7754;BME280;3921;42.266;23.122;2023-07-30T01:21:16;95482.19;;;24.30;51.30
7754;BME280;3921;42.266;23.122;2023-07-30T01:23:43;94892.72;;;20.53;51.43
7754;BME280;3921;42.266;23.122;2023-07-30T01:26:15;94858.16;;;20.15;51.93
7754;BME280;3921;42.266;23.122;2023-07-30T01:28:48;94861.91;;;20.24;51.72
7754;BME280;3921;42.266;23.122;2023-07-30T01:31:17;95217.63;;;22.47;52.25
7754;BME280;3921;42.266;23.122;2023-07-30T01:33:47;94892.19;;;20.48;51.85
7754;BME280;3921;42.266;23.122;2023-07-30T01:36:17;95507.22;;;24.12;51.95
7754;BME280;3921;42.266;23.122;2023-07-30T01:38:47;95287.41;;;22.81;51.72
7754;BME280;3921;42.266;23.122;2023-07-30T01:41:14;94890.88;;;20.23;51.73
7754;BME280;3921;42.266;23.122;2023-07-30T01:43:42;95503.53;;;24.02;51.82
7754;BME280;3921;42.266;23.122;2023-07-30T01:46:08;95108.69;;;21.67;51.66
7754;BME280;3921;42.266;23.122;2023-07-30T01:48:36;95097.16;;;21.60;51.49
7754;BME280;3921;42.266;23.122;2023-07-30T01:51:03;94912.63;;;20.30;51.79
7754;BME280;3921;42.266;23.122;2023-07-30T01:53:31;94937.78;;;20.54;51.87
7754;BME280;3921;42.266;23.122;2023-07-30T01:55:58;95483.47;;;23.94;51.69
7754;BME280;3921;42.266;23.122;2023-07-30T01:58:25;95278.06;;;22.66;51.51
7754;BME280;3921;42.266;23.122;2023-07-30T02:00:52;95111.09;;;21.55;51.70
7754;BME280;3921;42.266;23.122;2023-07-30T02:03:19;95160.06;;;21.79;51.80
7754;BME280;3921;42.266;23.122;2023-07-30T02:05:46;95119.19;;;21.47;51.88
7754;BME280;3921;42.266;23.122;2023-07-30T02:08:13;94868.81;;;19.91;51.71
7754;BME280;3921;42.266;23.122;2023-07-30T02:10:42;95094.22;;;21.36;51.81
7754;BME280;3921;42.266;23.122;2023-07-30T02:13:09;95489.22;;;23.83;51.86
7754;BME280;3921;42.266;23.122;2023-07-30T02:15:40;94986.19;;;20.71;51.78
7754;BME280;3921;42.266;23.122;2023-07-30T02:18:07;95503.44;;;23.89;51.82
7754;BME280;3921;42.266;23.122;2023-07-30T02:20:37;94965.41;;;20.46;51.82
7754;BME280;3921;42.266;23.122;2023-07-30T02:23:04;95157.03;;;21.56;52.07
7754;BME280;3921;42.266;23.122;2023-07-30T02:25:31;95531.75;;;23.88;52.33
7754;BME280;3921;42.266;23.122;2023-07-30T02:28:00;94849.63;;;19.83;51.73
7754;BME280;3921;42.266;23.122;2023-07-30T02:30:28;95277.53;;;22.29;51.85
7754;BME280;3921;42.266;23.122;2023-07-30T02:32:55;95344.66;;;22.66;52.30
7754;BME280;3921;42.266;23.122;2023-07-30T02:35:22;95291.97;;;22.46;51.82
7754;BME280;3921;42.266;23.122;2023-07-30T02:37:49;95133.28;;;21.38;51.83
7754;BME280;3921;42.266;23.122;2023-07-30T02:40:16;94922.00;;;20.14;52.04
7754;BME280;3921;42.266;23.122;2023-07-30T02:42:43;95312.78;;;22.40;51.71
7754;BME280;3921;42.266;23.122;2023-07-30T02:45:15;95094.41;;;21.16;51.79
7754;BME280;3921;42.266;23.122;2023-07-30T02:47:42;95149.13;;;21.29;51.97
7754;BME280;3921;42.266;23.122;2023-07-30T02:50:09;95026.53;;;20.64;51.95
7754;BME280;3921;42.266;23.122;2023-07-30T02:52:36;95298.13;;;22.12;52.04
7754;BME280;3921;42.266;23.122;2023-07-30T02:55:04;95119.41;;;21.11;52.38
7754;BME280;3921;42.266;23.122;2023-07-30T02:57:31;95011.03;;;20.19;52.14
7754;BME280;3921;42.266;23.122;2023-07-30T02:59:58;95545.97;;;23.47;52.17
7754;BME280;3921;42.266;23.122;2023-07-30T03:02:26;94895.25;;;19.72;51.87
7754;BME280;3921;42.266;23.122;2023-07-30T03:04:54;95510.34;;;23.43;52.27
7754;BME280;3921;42.266;23.122;2023-07-30T03:07:21;94893.09;;;19.47;52.53
7754;BME280;3921;42.266;23.122;2023-07-30T03:09:48;95522.53;;;23.23;52.62
7754;BME280;3921;42.266;23.122;2023-07-30T03:12:15;94950.72;;;19.50;52.36
7754;BME280;3921;42.266;23.122;2023-07-30T03:14:43;95148.03;;;20.84;52.07
7754;BME280;3921;42.266;23.122;2023-07-30T03:17:10;95411.91;;;22.38;52.40
7754;BME280;3921;42.266;23.122;2023-07-30T03:19:38;95175.06;;;20.88;52.22
7754;BME280;3921;42.266;23.122;2023-07-30T03:22:06;94987.84;;;19.73;52.50
7754;BME280;3921;42.266;23.122;2023-07-30T03:24:33;95369.44;;;22.18;52.76
7754;BME280;3921;42.266;23.122;2023-07-30T03:27:02;94944.78;;;19.49;52.91
7754;BME280;3921;42.266;23.122;2023-07-30T03:29:33;95190.72;;;20.98;52.52
7754;BME280;3921;42.266;23.122;2023-07-30T03:32:00;95312.84;;;21.75;52.91
7754;BME280;3921;42.266;23.122;2023-07-30T03:34:27;95183.00;;;20.66;52.88
7754;BME280;3921;42.266;23.122;2023-07-30T03:37:14;94923.97;;;19.24;52.98
7754;BME280;3921;42.266;23.122;2023-07-30T03:39:41;94935.88;;;19.41;52.99
7754;BME280;3921;42.266;23.122;2023-07-30T03:42:08;94949.53;;;19.40;52.96
7754;BME280;3921;42.266;23.122;2023-07-30T03:44:35;94868.97;;;18.85;53.12
7754;BME280;3921;42.266;23.122;2023-07-30T03:47:02;95183.84;;;20.50;53.60
7754;BME280;3921;42.266;23.122;2023-07-30T03:49:31;95083.84;;;19.89;53.32
7754;BME280;3921;42.266;23.122;2023-07-30T03:51:59;95544.81;;;22.74;53.52
7754;BME280;3921;42.266;23.122;2023-07-30T03:54:30;95054.56;;;19.63;53.38
7754;BME280;3921;42.266;23.122;2023-07-30T03:56:58;94939.97;;;18.91;53.64
7754;BME280;3921;42.266;23.122;2023-07-30T03:59:26;95395.47;;;21.93;53.42
7754;BME280;3921;42.266;23.122;2023-07-30T04:02:03;94958.06;;;19.21;53.40
7754;BME280;3921;42.266;23.122;2023-07-30T04:04:30;95563.25;;;22.80;54.46
7754;BME280;3921;42.266;23.122;2023-07-30T04:07:03;95056.72;;;19.71;54.29
7754;BME280;3921;42.266;23.122;2023-07-30T04:09:32;95219.34;;;20.72;54.50
7754;BME280;3921;42.266;23.122;2023-07-30T04:12:00;95221.78;;;20.90;54.61
7754;BME280;3921;42.266;23.122;2023-07-30T04:14:27;95182.25;;;20.47;54.86
7754;BME280;3921;42.266;23.122;2023-07-30T04:16:54;94932.19;;;18.94;54.73
7754;BME280;3921;42.266;23.122;2023-07-30T04:19:21;95175.41;;;20.65;54.44
7754;BME280;3921;42.266;23.122;2023-07-30T04:21:51;95426.84;;;21.96;54.56
7754;BME280;3921;42.266;23.122;2023-07-30T04:24:18;95569.72;;;22.88;54.46
7754;BME280;3921;42.266;23.122;2023-07-30T04:26:46;95570.56;;;22.88;54.13
7754;BME280;3921;42.266;23.122;2023-07-30T04:29:18;94954.34;;;19.09;54.36
7754;BME280;3921;42.266;23.122;2023-07-30T04:31:46;95309.84;;;21.51;53.96
7754;BME280;3921;42.266;23.122;2023-07-30T04:34:14;94995.06;;;19.28;54.54
7754;BME280;3921;42.266;23.122;2023-07-30T04:36:41;95217.00;;;20.67;54.37
7754;BME280;3921;42.266;23.122;2023-07-30T04:39:08;95158.06;;;20.20;55.13
7754;BME280;3921;42.266;23.122;2023-07-30T04:41:35;94908.44;;;18.76;54.70
7754;BME280;3921;42.266;23.122;2023-07-30T04:44:04;95337.41;;;21.44;55.19
7754;BME280;3921;42.266;23.122;2023-07-30T04:46:33;95103.06;;;19.62;55.15
7754;BME280;3921;42.266;23.122;2023-07-30T04:49:02;94984.16;;;19.07;55.13
7754;BME280;3921;42.266;23.122;2023-07-30T04:51:30;94958.69;;;19.07;54.79
7754;BME280;3921;42.266;23.122;2023-07-30T04:53:57;95107.41;;;20.12;55.01
7754;BME280;3921;42.266;23.122;2023-07-30T04:56:24;95163.09;;;20.38;55.20
7754;BME280;3921;42.266;23.122;2023-07-30T04:58:52;95200.56;;;20.73;55.00
7754;BME280;3921;42.266;23.122;2023-07-30T05:01:25;94874.53;;;18.76;54.99
7754;BME280;3921;42.266;23.122;2023-07-30T05:03:59;94989.16;;;19.45;55.00
7754;BME280;3921;42.266;23.122;2023-07-30T05:06:27;94982.34;;;19.28;55.21
7754;BME280;3921;42.266;23.122;2023-07-30T05:08:54;95324.50;;;21.47;54.93
7754;BME280;3921;42.266;23.122;2023-07-30T05:11:21;95230.13;;;20.94;55.04
7754;BME280;3921;42.266;23.122;2023-07-30T05:13:48;95552.97;;;23.14;55.00
7754;BME280;3921;42.266;23.122;2023-07-30T05:16:15;95364.59;;;21.96;54.90
7754;BME280;3921;42.266;23.122;2023-07-30T05:22:06;95530.06;;;22.95;55.33
7754;BME280;3921;42.266;23.122;2023-07-30T05:24:34;95179.22;;;21.07;55.74
7754;BME280;3921;42.266;23.122;2023-07-30T05:27:02;95208.56;;;21.15;55.66
7754;BME280;3921;42.266;23.122;2023-07-30T05:29:33;94931.00;;;19.36;55.81
7754;BME280;3921;42.266;23.122;2023-07-30T05:32:03;95416.19;;;22.37;55.72
7754;BME280;3921;42.266;23.122;2023-07-30T05:34:30;94971.56;;;19.75;55.75
7754;BME280;3921;42.266;23.122;2023-07-30T05:36:57;95020.28;;;20.04;55.65
7754;BME280;3921;42.266;23.122;2023-07-30T05:39:26;95325.81;;;22.04;56.03
7754;BME280;3921;42.266;23.122;2023-07-30T05:41:54;94991.34;;;19.87;56.02
7754;BME280;3921;42.266;23.122;2023-07-30T19:08:17;94573.84;;;26.84;41.24
7754;BME280;3921;42.266;23.122;2023-07-30T23:18:18;94788.66;;;23.48;54.07
7754;BME280;3921;42.266;23.122;2023-07-30T23:21:05;95342.59;;;26.98;55.76
7754;BME280;3921;42.266;23.122;2023-07-30T23:23:56;95069.72;;;25.05;55.92
7754;BME280;3921;42.266;23.122;2023-07-30T23:26:52;94786.50;;;23.04;58.57
7754;BME280;3921;42.266;23.122;2023-07-30T23:29:41;94813.75;;;23.05;59.69
7754;BME280;3921;42.266;23.122;2023-07-30T23:32:28;94818.16;;;23.03;59.25
